createdAt,value
2023-07-18T00:00:20.035Z,81.70
2023-07-18T00:02:48.777Z,82.10
2023-07-18T00:05:16.993Z,82.00
2023-07-18T00:07:45.565Z,82.00
2023-07-18T00:10:15.031Z,81.80
2023-07-18T00:12:43.212Z,81.90
2023-07-18T00:15:13.605Z,82.10
2023-07-18T00:17:42.706Z,82.30
2023-07-18T00:20:15.148Z,82.10
2023-07-18T00:22:44.318Z,82.30
2023-07-18T00:25:14.898Z,82.10
2023-07-18T00:27:43.493Z,82.20
2023-07-18T00:30:13.875Z,82.20
2023-07-18T00:32:43.589Z,82.30
2023-07-18T00:35:12.875Z,82.40
2023-07-18T00:37:41.207Z,82.40
2023-07-18T00:40:12.443Z,82.40
2023-07-18T00:42:42.980Z,82.40
2023-07-18T00:45:11.809Z,82.40
2023-07-18T00:47:43.819Z,82.40
2023-07-18T00:50:13.593Z,82.50
2023-07-18T00:52:45.977Z,82.50
2023-07-18T00:55:14.953Z,82.60
2023-07-18T00:57:46.450Z,82.60
2023-07-18T01:00:18.001Z,82.70
2023-07-18T01:02:47.622Z,82.60
2023-07-18T01:05:18.659Z,82.70
2023-07-18T01:07:47.884Z,83.00
2023-07-18T01:10:17.854Z,83.10
2023-07-18T01:12:48.767Z,83.00
2023-07-18T01:15:17.002Z,82.70
2023-07-18T01:17:46.873Z,82.60
2023-07-18T01:20:20.061Z,82.90
2023-07-18T01:22:52.052Z,82.90
2023-07-18T01:25:20.868Z,83.00
2023-07-18T01:27:50.197Z,82.80
2023-07-18T01:30:21.353Z,82.90
2023-07-18T01:32:50.481Z,82.80
2023-07-18T01:35:20.732Z,82.80
2023-07-18T01:37:50.694Z,82.80
2023-07-18T01:40:21.518Z,82.70
2023-07-18T01:42:51.563Z,82.90
2023-07-18T01:45:20.284Z,83.00
2023-07-18T01:47:49.814Z,82.90
2023-07-18T01:50:19.098Z,83.00
2023-07-18T01:52:48.187Z,82.90
2023-07-18T01:55:18.483Z,82.90
2023-07-18T01:57:48.630Z,83.00
2023-07-18T02:00:21.964Z,83.00
2023-07-18T02:02:52.611Z,83.10
2023-07-18T02:05:22.622Z,83.20
2023-07-18T02:07:51.436Z,83.10
2023-07-18T02:10:22.666Z,83.00
2023-07-18T02:12:51.711Z,83.00
2023-07-18T02:15:21.907Z,82.70
2023-07-18T02:17:50.452Z,82.80
2023-07-18T02:20:19.803Z,82.90
2023-07-18T02:22:49.526Z,83.20
2023-07-18T02:25:18.190Z,83.30
2023-07-18T02:27:47.886Z,83.30
2023-07-18T02:30:16.406Z,83.30
2023-07-18T02:32:45.242Z,83.30
2023-07-18T02:35:16.479Z,83.50
2023-07-18T02:37:44.879Z,83.50
2023-07-18T02:40:13.715Z,83.50
2023-07-18T02:42:41.804Z,83.50
2023-07-18T02:45:12.207Z,83.50
2023-07-18T02:47:40.639Z,83.20
2023-07-18T02:50:09.772Z,83.10
2023-07-18T02:52:38.308Z,83.20
2023-07-18T02:55:07.522Z,83.30
2023-07-18T02:57:36.814Z,83.20
2023-07-18T03:00:08.236Z,83.20
2023-07-18T03:02:38.512Z,83.50
2023-07-18T03:05:08.643Z,83.50
2023-07-18T03:07:36.728Z,83.70
2023-07-18T03:10:05.831Z,83.80
2023-07-18T03:12:34.043Z,83.90
2023-07-18T03:15:02.215Z,83.80
2023-07-18T03:17:30.365Z,83.80
2023-07-18T03:19:59.871Z,83.80
2023-07-18T03:22:30.958Z,83.80
2023-07-18T03:25:06.338Z,83.70
2023-07-18T03:27:34.493Z,83.60
2023-07-18T03:30:02.622Z,83.60
2023-07-18T03:32:31.329Z,83.80
2023-07-18T03:35:01.498Z,83.80
2023-07-18T03:37:30.018Z,83.80
2023-07-18T03:39:58.105Z,83.80
2023-07-18T03:42:26.102Z,84.00
2023-07-18T03:44:55.157Z,84.20
2023-07-18T03:47:23.215Z,84.10
2023-07-18T03:49:52.081Z,84.10
2023-07-18T03:52:21.686Z,84.10
2023-07-18T03:54:49.776Z,84.00
2023-07-18T03:57:18.034Z,83.90
2023-07-18T03:59:46.050Z,84.00
2023-07-18T04:02:15.952Z,84.10
2023-07-18T04:04:44.077Z,84.20
2023-07-18T04:07:12.548Z,84.20
2023-07-18T04:09:41.959Z,84.30
2023-07-18T04:12:10.518Z,84.30
2023-07-18T04:14:38.651Z,84.10
2023-07-18T04:17:06.758Z,84.10
2023-07-18T04:19:34.850Z,84.10
2023-07-18T04:22:03.294Z,84.10
2023-07-18T04:24:32.855Z,84.10
2023-07-18T04:27:02.283Z,84.10
2023-07-18T04:29:30.476Z,84.10
2023-07-18T04:31:58.627Z,84.00
2023-07-18T04:34:26.840Z,84.00
2023-07-18T04:36:54.915Z,84.00
2023-07-18T04:39:23.147Z,84.10
2023-07-18T04:41:55.753Z,84.00
2023-07-18T04:44:25.768Z,84.20
2023-07-18T04:46:54.703Z,84.40
2023-07-18T04:49:25.821Z,84.30
2023-07-18T04:51:54.533Z,84.20
2023-07-18T04:54:22.737Z,84.30
2023-07-18T04:56:54.350Z,84.40
2023-07-18T04:59:23.280Z,84.30
2023-07-18T05:01:55.554Z,84.40
2023-07-18T05:04:24.260Z,84.40
2023-07-18T05:06:52.469Z,84.30
2023-07-18T05:09:20.638Z,84.40
2023-07-18T05:11:49.061Z,84.30
2023-07-18T05:14:17.349Z,84.30
2023-07-18T05:16:45.591Z,84.30
2023-07-18T05:19:15.202Z,84.40
2023-07-18T05:21:43.282Z,84.30
2023-07-18T05:24:11.869Z,84.40
2023-07-18T05:26:39.936Z,84.40
2023-07-18T05:29:07.968Z,84.30
2023-07-18T05:31:36.251Z,83.50
2023-07-18T05:34:04.610Z,83.60
2023-07-18T05:36:36.022Z,83.70
2023-07-18T05:39:04.258Z,83.50
2023-07-18T05:41:32.558Z,83.40
2023-07-18T05:44:00.654Z,83.10
2023-07-18T05:46:29.022Z,83.30
2023-07-18T05:48:57.237Z,83.10
2023-07-18T05:51:25.423Z,82.50
2023-07-18T05:53:55.067Z,82.40
2023-07-18T05:56:23.248Z,81.90
2023-07-18T05:58:51.354Z,82.00
2023-07-18T06:01:19.790Z,81.70
2023-07-18T06:03:48.925Z,80.70
2023-07-18T06:06:17.099Z,81.00
2023-07-18T06:08:45.266Z,81.00
2023-07-18T06:11:14.754Z,80.40
2023-07-18T06:13:43.325Z,80.80
2023-07-18T06:16:11.446Z,79.80
2023-07-18T06:18:42.671Z,80.30
2023-07-18T06:21:10.887Z,80.60
2023-07-18T06:23:38.903Z,79.90
2023-07-18T06:26:07.526Z,79.30
2023-07-18T06:28:36.911Z,79.00
2023-07-18T06:31:05.149Z,79.20
2023-07-18T06:33:33.747Z,78.60
2023-07-18T06:36:01.884Z,78.00
2023-07-18T06:38:29.990Z,77.60
2023-07-18T06:40:58.107Z,78.00
2023-07-18T06:43:26.546Z,77.90
2023-07-18T06:45:56.028Z,77.60
2023-07-18T06:48:24.231Z,77.70
2023-07-18T06:50:54.066Z,76.60
2023-07-18T06:53:23.117Z,76.30
2023-07-18T06:55:52.092Z,76.90
2023-07-18T06:58:20.921Z,76.60
2023-07-18T07:00:50.653Z,76.70
2023-07-18T07:03:20.693Z,76.50
2023-07-18T07:05:48.997Z,75.90
2023-07-18T07:08:22.284Z,75.80
2023-07-18T07:10:50.399Z,75.60
2023-07-18T07:13:18.639Z,75.10
2023-07-18T07:15:46.768Z,75.10
2023-07-18T07:18:14.907Z,74.50
2023-07-18T07:20:45.112Z,74.20
2023-07-18T07:23:13.282Z,74.70
2023-07-18T07:25:41.435Z,74.60
2023-07-18T07:28:10.281Z,74.80
2023-07-18T07:30:38.627Z,74.10
2023-07-18T07:33:07.676Z,74.30
2023-07-18T07:35:35.945Z,73.70
2023-07-18T07:38:05.441Z,73.70
2023-07-18T07:40:33.662Z,73.30
2023-07-18T07:43:02.073Z,73.90
2023-07-18T07:45:30.200Z,71.80
2023-07-18T07:47:58.369Z,71.40
2023-07-18T07:50:26.737Z,72.00
2023-07-18T07:52:54.864Z,72.30
2023-07-18T07:55:24.547Z,72.10
2023-07-18T07:57:52.732Z,72.00
2023-07-18T08:00:21.850Z,71.40
2023-07-18T08:02:49.964Z,71.30
2023-07-18T08:05:18.256Z,71.50
2023-07-18T08:07:46.403Z,70.40
2023-07-18T08:10:14.462Z,71.10
2023-07-18T08:12:43.977Z,71.70
2023-07-18T08:15:12.294Z,71.80
2023-07-18T08:17:40.440Z,71.60
2023-07-18T08:20:11.514Z,71.00
2023-07-18T08:22:39.851Z,71.30
2023-07-18T08:25:08.280Z,71.40
2023-07-18T08:27:36.740Z,69.60
2023-07-18T08:30:07.536Z,69.00
2023-07-18T08:32:35.773Z,68.80
2023-07-18T08:35:03.907Z,70.00
2023-07-18T08:37:32.037Z,69.30
2023-07-18T08:40:00.496Z,68.90
2023-07-18T08:42:29.571Z,69.20
2023-07-18T08:44:59.903Z,68.80
2023-07-18T08:47:29.801Z,69.00
2023-07-18T08:49:57.889Z,68.80
2023-07-18T08:52:26.120Z,67.40
2023-07-18T08:54:54.208Z,68.30
2023-07-18T08:57:22.658Z,68.40
2023-07-18T08:59:51.575Z,67.00
2023-07-18T09:02:19.645Z,67.80
2023-07-18T09:04:49.461Z,66.90
2023-07-18T09:07:20.989Z,66.90
2023-07-18T09:09:49.125Z,65.70
2023-07-18T09:12:17.259Z,67.00
2023-07-18T09:14:45.362Z,64.60
2023-07-18T09:17:13.498Z,64.80
2023-07-18T09:19:43.273Z,64.80
2023-07-18T09:22:14.106Z,64.40
2023-07-18T09:24:44.745Z,64.60
2023-07-18T09:27:18.160Z,64.50
2023-07-18T09:29:47.065Z,64.00
2023-07-18T09:32:19.520Z,63.60
2023-07-18T09:34:54.784Z,63.20
2023-07-18T09:37:24.693Z,62.30
2023-07-18T09:39:53.344Z,62.50
2023-07-18T09:42:23.805Z,63.10
2023-07-18T09:44:54.050Z,63.20
2023-07-18T09:47:23.107Z,63.30
2023-07-18T09:49:52.565Z,63.20
2023-07-18T09:52:29.079Z,63.20
2023-07-18T09:54:58.934Z,62.90
2023-07-18T09:57:28.029Z,62.40
2023-07-18T09:59:58.284Z,62.60
2023-07-18T10:02:26.539Z,63.00
2023-07-18T10:04:55.166Z,62.90
2023-07-18T10:07:24.068Z,62.80
2023-07-18T10:09:53.787Z,63.10
2023-07-18T10:12:21.999Z,63.30
2023-07-18T10:14:58.218Z,62.20
2023-07-18T10:17:45.338Z,62.10
2023-07-18T10:20:14.930Z,61.90
2023-07-18T10:22:49.972Z,61.80
2023-07-18T10:25:21.769Z,62.10
2023-07-18T10:27:52.241Z,62.20
2023-07-18T10:30:21.726Z,62.40
2023-07-18T10:32:54.570Z,62.00
2023-07-18T10:35:25.964Z,62.10
2023-07-18T10:37:56.310Z,61.80
2023-07-18T10:40:38.582Z,61.20
2023-07-18T10:43:08.264Z,61.00
2023-07-18T10:45:40.171Z,61.50
2023-07-18T10:48:13.012Z,61.90
2023-07-18T10:50:41.482Z,61.80
2023-07-18T10:53:13.076Z,61.40
2023-07-18T10:55:42.584Z,60.80
2023-07-18T10:58:18.128Z,60.70
2023-07-18T11:00:47.012Z,61.20
2023-07-18T11:03:22.334Z,60.30
2023-07-18T11:05:51.315Z,60.10
2023-07-18T11:08:26.942Z,60.10
2023-07-18T11:10:58.523Z,58.70
2023-07-18T11:13:31.402Z,60.10
2023-07-18T11:16:00.877Z,60.60
2023-07-18T11:18:33.420Z,60.50
2023-07-18T11:21:03.829Z,60.00
2023-07-18T11:23:32.552Z,60.20
2023-07-18T11:26:09.205Z,60.00
2023-07-18T11:28:38.351Z,59.80
2023-07-18T11:31:06.578Z,60.10
2023-07-18T11:33:35.780Z,59.70
2023-07-18T11:36:10.608Z,60.80
2023-07-18T11:38:41.612Z,61.40
2023-07-18T11:41:17.070Z,61.00
2023-07-18T11:43:49.150Z,61.00
2023-07-18T11:46:17.259Z,60.10
2023-07-18T11:48:49.884Z,60.50
2023-07-18T11:51:18.239Z,60.90
2023-07-18T11:53:47.911Z,61.30
2023-07-18T11:56:17.367Z,61.30
2023-07-18T11:58:45.442Z,61.30
2023-07-18T12:01:13.813Z,61.30
2023-07-18T12:03:42.188Z,61.40
2023-07-18T12:06:10.443Z,61.10
2023-07-18T12:08:38.620Z,61.40
2023-07-18T12:11:10.397Z,61.40
2023-07-18T12:13:40.607Z,61.10
2023-07-18T12:16:08.936Z,60.90
2023-07-18T12:18:37.358Z,61.10
2023-07-18T12:21:05.676Z,60.70
2023-07-18T12:23:33.809Z,60.50
2023-07-18T12:26:01.899Z,60.10
2023-07-18T12:28:29.946Z,60.40
2023-07-18T12:30:59.541Z,60.50
2023-07-18T12:33:27.997Z,60.30
2023-07-18T12:35:56.488Z,60.30
2023-07-18T12:38:27.604Z,60.30
2023-07-18T12:40:57.220Z,59.90
2023-07-18T12:43:25.346Z,59.80
2023-07-18T12:45:57.020Z,59.30
2023-07-18T12:48:26.631Z,59.20
2023-07-18T12:50:55.212Z,59.10
2023-07-18T12:53:23.759Z,60.20
2023-07-18T12:55:51.851Z,60.40
2023-07-18T12:58:19.942Z,60.30
2023-07-18T13:00:48.639Z,59.80
2023-07-18T13:03:16.885Z,60.00
2023-07-18T13:05:46.399Z,59.90
2023-07-18T13:08:14.491Z,58.80
2023-07-18T13:10:42.631Z,59.10
2023-07-18T13:13:10.748Z,58.50
2023-07-18T13:15:38.882Z,58.30
2023-07-18T13:18:07.182Z,58.00
2023-07-18T13:20:35.541Z,58.20
2023-07-18T13:23:05.125Z,58.20
2023-07-18T13:25:33.425Z,58.40
2023-07-18T13:28:01.605Z,58.00
2023-07-18T13:30:30.384Z,58.30
2023-07-18T13:32:58.633Z,58.50
2023-07-18T13:35:26.827Z,58.90
2023-07-18T13:37:56.061Z,58.60
2023-07-18T13:40:25.654Z,59.00
2023-07-18T13:42:53.753Z,57.70
2023-07-18T13:45:22.203Z,58.20
2023-07-18T13:47:50.535Z,58.00
2023-07-18T13:52:58.709Z,58.40
2023-07-18T13:55:28.267Z,58.60
2023-07-18T13:57:56.437Z,57.50
2023-07-18T14:00:25.265Z,57.50
2023-07-18T14:02:53.436Z,58.00
2023-07-18T14:05:21.833Z,58.40
2023-07-18T14:07:50.049Z,57.90
2023-07-18T14:10:18.505Z,57.30
2023-07-18T14:12:48.508Z,57.70
2023-07-18T14:15:16.616Z,57.40
2023-07-18T14:17:44.839Z,57.20
2023-07-18T14:20:14.096Z,57.10
2023-07-18T14:22:43.909Z,56.90
2023-07-18T14:25:13.012Z,56.80
2023-07-18T14:27:41.251Z,55.60
2023-07-18T14:30:11.573Z,56.10
2023-07-18T14:32:40.544Z,56.20
2023-07-18T14:35:09.671Z,56.50
2023-07-18T14:37:38.997Z,56.80
2023-07-18T14:40:09.496Z,56.70
2023-07-18T14:42:37.963Z,56.00
2023-07-18T14:45:07.185Z,55.80
2023-07-18T14:47:36.683Z,55.40
2023-07-18T14:50:05.063Z,53.60
2023-07-18T14:52:33.233Z,51.80
2023-07-18T14:55:01.678Z,50.40
2023-07-18T14:57:29.884Z,50.50
2023-07-18T14:59:58.230Z,49.40
2023-07-18T15:02:26.565Z,48.10
2023-07-18T15:04:56.081Z,46.80
2023-07-18T15:07:24.295Z,45.70
2023-07-18T15:09:52.811Z,43.80
2023-07-18T15:12:21.569Z,43.80
2023-07-18T15:14:50.198Z,43.00
2023-07-18T15:17:18.347Z,43.40
2023-07-18T15:19:50.573Z,43.80
2023-07-18T15:22:20.319Z,43.00
2023-07-18T15:24:48.584Z,42.90
2023-07-18T15:27:16.898Z,42.80
2023-07-18T15:29:46.940Z,43.20
2023-07-18T15:32:15.026Z,42.50
2023-07-18T15:34:43.111Z,41.40
2023-07-18T15:37:11.245Z,42.20
2023-07-18T15:39:40.705Z,43.90
2023-07-18T15:42:09.029Z,43.50
2023-07-18T15:44:37.266Z,42.30
2023-07-18T15:47:05.952Z,42.30
2023-07-18T15:49:34.142Z,42.10
2023-07-18T15:52:02.361Z,42.20
2023-07-18T15:54:31.089Z,41.70
2023-07-18T15:57:00.624Z,41.10
2023-07-18T15:59:28.837Z,41.10
2023-07-18T16:01:57.400Z,39.40
2023-07-18T16:04:25.829Z,38.70
2023-07-18T16:06:54.156Z,37.50
2023-07-18T16:09:27.551Z,36.90
2023-07-18T16:11:55.914Z,36.40
2023-07-18T16:14:25.804Z,35.80
2023-07-18T16:16:55.441Z,37.20
2023-07-18T16:19:23.666Z,38.20
2023-07-18T16:21:55.057Z,38.00
2023-07-18T16:24:23.084Z,37.00
2023-07-18T16:26:51.612Z,36.10
2023-07-18T16:29:19.696Z,35.20
2023-07-18T16:31:49.129Z,34.40
2023-07-18T16:34:17.522Z,33.80
2023-07-18T16:36:45.691Z,34.00
2023-07-18T16:39:13.944Z,35.70
2023-07-18T16:41:42.348Z,36.30
2023-07-18T16:44:10.865Z,35.70
2023-07-18T16:46:39.053Z,35.50
2023-07-18T16:49:08.603Z,34.80
2023-07-18T16:51:36.759Z,34.50
2023-07-18T16:54:04.919Z,34.60
2023-07-18T16:56:35.018Z,35.20
2023-07-18T16:59:04.720Z,35.70
2023-07-18T17:01:33.080Z,36.10
2023-07-18T17:04:02.134Z,35.80
2023-07-18T17:06:31.767Z,35.40
2023-07-18T17:09:00.149Z,36.50
2023-07-18T17:11:28.375Z,38.10
2023-07-18T17:13:56.520Z,38.00
2023-07-18T17:16:24.808Z,37.40
2023-07-18T17:18:52.943Z,37.00
2023-07-18T17:21:21.154Z,36.70
2023-07-18T17:23:50.865Z,36.60
2023-07-18T17:26:19.173Z,36.60
2023-07-18T17:28:47.729Z,36.90
2023-07-18T17:31:15.900Z,37.30
2023-07-18T17:33:44.396Z,39.00
2023-07-18T17:36:13.012Z,40.20
2023-07-18T17:38:41.137Z,40.60
2023-07-18T17:41:10.589Z,40.70
2023-07-18T17:43:38.679Z,40.90
2023-07-18T17:46:06.925Z,41.30
2023-07-18T17:48:35.001Z,41.70
2023-07-18T17:51:04.136Z,42.20
2023-07-18T17:53:32.677Z,42.60
2023-07-18T17:56:01.950Z,43.10
2023-07-18T17:58:31.469Z,43.20
2023-07-18T18:00:59.490Z,43.20
2023-07-18T18:03:27.865Z,42.70
2023-07-18T18:05:56.136Z,42.50
2023-07-18T18:08:24.232Z,42.30
2023-07-18T18:10:53.055Z,42.60
2023-07-18T18:13:21.355Z,42.90
2023-07-18T18:16:06.388Z,43.20
2023-07-18T18:18:36.904Z,43.50
2023-07-18T18:21:05.445Z,44.20
2023-07-18T18:23:39.907Z,44.70
2023-07-18T18:26:10.075Z,45.00
2023-07-18T18:28:38.378Z,45.40
2023-07-18T18:31:08.098Z,46.20
2023-07-18T18:33:36.347Z,46.60
2023-07-18T18:36:04.680Z,46.90
2023-07-18T18:38:32.781Z,47.40
2023-07-18T18:41:01.247Z,47.90
2023-07-18T18:43:29.655Z,48.10
2023-07-18T18:45:57.855Z,48.00
2023-07-18T18:48:27.803Z,48.10
2023-07-18T18:50:56.054Z,48.90
2023-07-18T18:53:24.247Z,48.80
2023-07-18T18:55:53.084Z,49.80
2023-07-18T18:58:21.167Z,49.50
2023-07-18T19:00:49.292Z,49.70
2023-07-18T19:03:18.024Z,50.90
2023-07-18T19:05:48.639Z,51.60
2023-07-18T19:08:17.037Z,51.60
2023-07-18T19:10:56.300Z,52.30
2023-07-18T19:13:29.997Z,52.70
2023-07-18T19:15:58.288Z,53.00
2023-07-18T19:18:26.588Z,53.30
2023-07-18T19:20:56.014Z,53.80
2023-07-18T19:23:24.543Z,53.90
2023-07-18T19:25:54.051Z,53.80
2023-07-18T19:28:22.478Z,54.40
2023-07-18T19:30:50.640Z,54.60
2023-07-18T19:33:18.782Z,54.80
2023-07-18T19:35:46.898Z,55.10
2023-07-18T19:38:16.393Z,55.40
2023-07-18T19:40:44.449Z,55.70
2023-07-18T19:43:13.240Z,55.90
2023-07-18T19:45:41.468Z,55.80
2023-07-18T19:48:09.648Z,55.90
2023-07-18T19:50:41.444Z,56.20
2023-07-18T19:53:09.540Z,56.40
2023-07-18T19:55:39.163Z,56.70
2023-07-18T19:58:07.194Z,57.10
2023-07-18T20:00:35.351Z,57.20
2023-07-18T20:03:03.635Z,57.50
2023-07-18T20:05:33.539Z,57.80
2023-07-18T20:08:02.504Z,57.90
2023-07-18T20:10:30.689Z,57.70
2023-07-18T20:13:00.205Z,57.50
2023-07-18T20:15:29.615Z,57.30
2023-07-18T20:17:57.739Z,57.00
2023-07-18T20:20:25.857Z,57.20
2023-07-18T20:22:54.023Z,57.40
2023-07-18T20:25:22.320Z,57.30
2023-07-18T20:27:50.505Z,57.50
2023-07-18T20:30:21.189Z,57.60
2023-07-18T20:32:50.108Z,57.70
2023-07-18T20:35:18.608Z,57.70
2023-07-18T20:37:50.884Z,57.70
2023-07-18T20:40:18.988Z,57.70
2023-07-18T20:42:47.138Z,57.90
2023-07-18T20:45:15.763Z,58.00
2023-07-18T20:47:45.801Z,58.30
2023-07-18T20:50:14.047Z,58.80
2023-07-18T20:52:42.567Z,59.30
2023-07-18T20:55:10.962Z,59.60
2023-07-18T20:57:39.236Z,59.70
2023-07-18T21:00:09.130Z,59.70
2023-07-18T21:02:37.307Z,60.00
2023-07-18T21:05:07.479Z,60.20
2023-07-18T21:07:35.738Z,60.50
2023-07-18T21:10:04.221Z,60.30
2023-07-18T21:12:32.443Z,60.50
2023-07-18T21:15:00.658Z,60.20
2023-07-18T21:17:28.881Z,60.10
2023-07-18T21:19:57.073Z,60.30
2023-07-18T21:22:26.614Z,60.50
2023-07-18T21:24:54.807Z,60.90
2023-07-18T21:27:22.924Z,61.20
2023-07-18T21:29:51.177Z,61.30
2023-07-18T21:32:19.307Z,61.10
2023-07-18T21:34:47.334Z,61.10
2023-07-18T21:37:15.663Z,61.40
2023-07-18T21:39:45.308Z,61.40
2023-07-18T21:42:13.473Z,61.40
2023-07-18T21:44:41.635Z,61.40
2023-07-18T21:47:09.842Z,61.30
2023-07-18T21:49:37.873Z,61.60
2023-07-18T21:52:06.649Z,61.90
2023-07-18T21:54:34.810Z,62.10
2023-07-18T21:57:04.825Z,62.50
2023-07-18T21:59:32.965Z,62.70
2023-07-18T22:02:01.177Z,62.70
2023-07-18T22:04:29.384Z,62.70
2023-07-18T22:06:57.482Z,62.70
2023-07-18T22:09:25.684Z,62.80
2023-07-18T22:11:53.740Z,62.80
2023-07-18T22:14:23.828Z,62.60
2023-07-18T22:16:52.446Z,62.70
2023-07-18T22:19:20.647Z,62.60
2023-07-18T22:21:48.932Z,62.90
2023-07-18T22:24:17.247Z,63.20
2023-07-18T22:26:45.311Z,63.50
2023-07-18T22:29:13.516Z,63.60
2023-07-18T22:31:43.472Z,63.70
2023-07-18T22:34:11.667Z,63.70
2023-07-18T22:36:39.904Z,63.50
2023-07-18T22:39:08.527Z,63.50
2023-07-18T22:41:39.964Z,63.50
2023-07-18T22:44:08.014Z,63.80
2023-07-18T22:46:36.486Z,63.70
2023-07-18T22:49:06.024Z,63.90
2023-07-18T22:51:34.136Z,63.90
2023-07-18T22:54:02.193Z,63.90
2023-07-18T22:56:30.502Z,63.90
2023-07-18T22:58:58.620Z,64.00
2023-07-18T23:01:26.668Z,63.90
2023-07-18T23:03:54.859Z,63.90
2023-07-18T23:06:24.284Z,63.80
2023-07-18T23:08:52.369Z,63.90
2023-07-18T23:11:20.689Z,63.10
2023-07-18T23:13:49.056Z,63.20
2023-07-18T23:16:17.309Z,63.40
2023-07-18T23:18:45.417Z,63.80
2023-07-18T23:21:13.559Z,64.00
2023-07-18T23:23:43.016Z,64.10
2023-07-18T23:26:11.271Z,64.30
2023-07-18T23:28:39.461Z,64.70
2023-07-18T23:31:07.657Z,64.90
2023-07-18T23:33:36.030Z,65.20
2023-07-18T23:36:04.292Z,65.20
2023-07-18T23:41:44.985Z,65.20
2023-07-18T23:44:13.141Z,65.00
2023-07-18T23:46:41.409Z,65.20
2023-07-18T23:49:09.726Z,65.30
2023-07-18T23:51:37.819Z,65.40
2023-07-18T23:54:05.929Z,65.50
2023-07-18T23:56:34.218Z,65.70
2023-07-18T23:59:03.712Z,66.20
